WXM80 ListenWXM80 Stop

You find our weather info also at:

UK Metoffice

WeatherCloud

Weather Underground

Northeastern Weather Network

AWEKAS

Citizen Weather Observer Program (CWOP)

HAMweather, WeatherForYou, PWS Weather


Weather Underground History page Text

Daily Summary for March 26, 2017 Units:  Both    English   Metric
« Previous Day
Next Day »
Daily Weekly Monthly Yearly Custom
  High: Low: Average:
Temperature: 40.4 °F /  4.7 °C 36.4 °F /  2.4 °C 38.8 °F /  3.8 °C
Dew Point: 37.5 °F /  3.1 °C 33.7 °F /  0.9 °C 36 °F /  2.2 °C
Humidity: 96 % 84 % 90 %
Wind Speed: 10.7 mph /  17.2 km/h - 6.7 mph /  10.8 km/h
Wind Gust: 17.3 mph /  27.8 km/h - -
Wind:- - ENE
Pressure: 30.46 in /  1031.4 hPa 30.30 in /  1026 hPa -
Precipitation: 0.00 in /  0 mm    
Historical Graphs
 
 
Tabular Data for March 26, 2017
Time Temperature Dew Point Pressure Wind Wind Speed Wind Gust Humidity Rainfall Rate (Hourly)
00:01 39.8 °F /  4.3 °C 37.1 °F /  2.8 °C 30.38 in /  1028.7 hPa NE 4.1 mph /  6.6 km/h 4.6 mph /  7.4 km/h 90 % 0.00 in /  0 mm
00:06 39.8 °F /  4.3 °C 37.1 °F /  2.8 °C 30.37 in /  1028.3 hPa NE 3.5 mph /  5.6 km/h 5.0 mph /  8 km/h 90 % 0.00 in /  0 mm
00:11 39.8 °F /  4.3 °C 37.1 °F /  2.8 °C 30.37 in /  1028.3 hPa ENE 5.0 mph /  8 km/h 8.1 mph /  13 km/h 90 % 0.00 in /  0 mm
00:16 39.7 °F /  4.3 °C 37.3 °F /  2.9 °C 30.38 in /  1028.7 hPa NE 1.9 mph /  3.1 km/h 3.5 mph /  5.6 km/h 91 % 0.00 in /  0 mm
00:21 39.7 °F /  4.3 °C 37.3 °F /  2.9 °C 30.38 in /  1028.7 hPa ENE 3.1 mph /  5 km/h 4.6 mph /  7.4 km/h 91 % 0.00 in /  0 mm
00:26 39.6 °F /  4.2 °C 37.2 °F /  2.9 °C 30.38 in /  1028.7 hPa ENE 4.0 mph /  6.4 km/h 6.9 mph /  11.1 km/h 91 % 0.00 in /  0 mm
00:31 39.6 °F /  4.2 °C 36.9 °F /  2.7 °C 30.38 in /  1028.7 hPa ENE 4.3 mph /  6.9 km/h 6.9 mph /  11.1 km/h 90 % 0.00 in /  0 mm
00:36 39.5 °F /  4.2 °C 36.8 °F /  2.7 °C 30.38 in /  1028.7 hPa ENE 4.1 mph /  6.6 km/h 8.1 mph /  13 km/h 90 % 0.00 in /  0 mm
00:41 39.4 °F /  4.1 °C 36.7 °F /  2.6 °C 30.38 in /  1028.7 hPa ENE 4.8 mph /  7.7 km/h 10.4 mph /  16.7 km/h 90 % 0.00 in /  0 mm
00:46 39.4 °F /  4.1 °C 36.7 °F /  2.6 °C 30.38 in /  1028.7 hPa NE 2.4 mph /  3.9 km/h 3.5 mph /  5.6 km/h 90 % 0.00 in /  0 mm
00:51 39.4 °F /  4.1 °C 36.4 °F /  2.4 °C 30.38 in /  1028.7 hPa ENE 4.9 mph /  7.9 km/h 11.0 mph /  17.7 km/h 89 % 0.00 in /  0 mm
00:56 39.4 °F /  4.1 °C 36.4 °F /  2.4 °C 30.38 in /  1028.7 hPa ENE 5.3 mph /  8.5 km/h 9.2 mph /  14.8 km/h 89 % 0.00 in /  0 mm
01:01 39.4 °F /  4.1 °C 36.4 °F /  2.4 °C 30.39 in /  1029 hPa NE 3.6 mph /  5.8 km/h 4.6 mph /  7.4 km/h 89 % 0.00 in /  0 mm
01:06 39.4 °F /  4.1 °C 36.4 °F /  2.4 °C 30.38 in /  1028.7 hPa East 5.0 mph /  8 km/h 9.2 mph /  14.8 km/h 89 % 0.00 in /  0 mm
01:11 39.4 °F /  4.1 °C 36.4 °F /  2.4 °C 30.39 in /  1029 hPa NE 3.3 mph /  5.3 km/h 8.0 mph /  12.9 km/h 89 % 0.00 in /  0 mm
01:16 39.4 °F /  4.1 °C 36.4 °F /  2.4 °C 30.38 in /  1028.7 hPa NE 3.8 mph /  6.1 km/h 6.9 mph /  11.1 km/h 89 % 0.00 in /  0 mm
01:21 39.4 °F /  4.1 °C 36.4 °F /  2.4 °C 30.38 in /  1028.7 hPa NE 3.1 mph /  5 km/h 5.0 mph /  8 km/h 89 % 0.00 in /  0 mm
01:26 39.3 °F /  4.1 °C 36.3 °F /  2.4 °C 30.38 in /  1028.7 hPa NE 6.8 mph /  10.9 km/h 10.4 mph /  16.7 km/h 89 % 0.00 in /  0 mm
01:31 39.3 °F /  4.1 °C 36.3 °F /  2.4 °C 30.38 in /  1028.7 hPa NE 5.6 mph /  9 km/h 11.5 mph /  18.5 km/h 89 % 0.00 in /  0 mm
01:37 39.3 °F /  4.1 °C 36.3 °F /  2.4 °C 30.38 in /  1028.7 hPa ENE 5.4 mph /  8.7 km/h 9.2 mph /  14.8 km/h 89 % 0.00 in /  0 mm
01:42 39.3 °F /  4.1 °C 36.3 °F /  2.4 °C 30.37 in /  1028.3 hPa ENE 4.8 mph /  7.7 km/h 8.1 mph /  13 km/h 89 % 0.00 in /  0 mm
01:47 39.2 °F /  4 °C 36.2 °F /  2.3 °C 30.39 in /  1029 hPa ENE 3.0 mph /  4.8 km/h 8.1 mph /  13 km/h 89 % 0.00 in /  0 mm
01:52 39.1 °F /  3.9 °C 36.1 °F /  2.3 °C 30.38 in /  1028.7 hPa ENE 6.1 mph /  9.8 km/h 9.2 mph /  14.8 km/h 89 % 0.00 in /  0 mm
01:57 39.1 °F /  3.9 °C 36.1 °F /  2.3 °C 30.39 in /  1029 hPa ENE 4.6 mph /  7.4 km/h 7.0 mph /  11.3 km/h 89 % 0.00 in /  0 mm
02:02 39.1 °F /  3.9 °C 36.4 °F /  2.4 °C 30.38 in /  1028.7 hPa ENE 5.8 mph /  9.3 km/h 7.0 mph /  11.3 km/h 90 % 0.00 in /  0 mm
02:07 39.1 °F /  3.9 °C 36.4 °F /  2.4 °C 30.39 in /  1029 hPa East 4.6 mph /  7.4 km/h 8.1 mph /  13 km/h 90 % 0.00 in /  0 mm
02:12 39.1 °F /  3.9 °C 36.4 °F /  2.4 °C 30.39 in /  1029 hPa East 4.5 mph /  7.2 km/h 8.1 mph /  13 km/h 90 % 0.00 in /  0 mm
02:17 39.1 °F /  3.9 °C 36.4 °F /  2.4 °C 30.39 in /  1029 hPa East 4.1 mph /  6.6 km/h 6.0 mph /  9.7 km/h 90 % 0.00 in /  0 mm
02:22 39.1 °F /  3.9 °C 36.4 °F /  2.4 °C 30.39 in /  1029 hPa ENE 3.0 mph /  4.8 km/h 4.0 mph /  6.4 km/h 90 % 0.00 in /  0 mm
02:27 39.1 °F /  3.9 °C 36.4 °F /  2.4 °C 30.40 in /  1029.3 hPa East 3.6 mph /  5.8 km/h 5.0 mph /  8 km/h 90 % 0.00 in /  0 mm
02:32 39.1 °F /  3.9 °C 36.4 °F /  2.4 °C 30.39 in /  1029 hPa East 5.1 mph /  8.2 km/h 7.0 mph /  11.3 km/h 90 % 0.00 in /  0 mm
02:37 39.1 °F /  3.9 °C 36.4 °F /  2.4 °C 30.40 in /  1029.3 hPa East 3.2 mph /  5.1 km/h 4.6 mph /  7.4 km/h 90 % 0.00 in /  0 mm
02:42 39.1 °F /  3.9 °C 36.4 °F /  2.4 °C 30.40 in /  1029.3 hPa ENE 3.4 mph /  5.5 km/h 6.9 mph /  11.1 km/h 90 % 0.00 in /  0 mm
02:47 39.1 °F /  3.9 °C 36.4 °F /  2.4 °C 30.39 in /  1029 hPa ENE 4.8 mph /  7.7 km/h 5.8 mph /  9.3 km/h 90 % 0.00 in /  0 mm
02:52 39.0 °F /  3.9 °C 36.3 °F /  2.4 °C 30.39 in /  1029 hPa NE 5.9 mph /  9.5 km/h 8.1 mph /  13 km/h 90 % 0.00 in /  0 mm
02:57 39.0 °F /  3.9 °C 36.3 °F /  2.4 °C 30.39 in /  1029 hPa NE 6.2 mph /  10 km/h 8.1 mph /  13 km/h 90 % 0.00 in /  0 mm
03:02 38.9 °F /  3.8 °C 36.2 °F /  2.3 °C 30.40 in /  1029.3 hPa ENE 5.2 mph /  8.4 km/h 8.1 mph /  13 km/h 90 % 0.00 in /  0 mm
03:07 38.9 °F /  3.8 °C 35.9 °F /  2.2 °C 30.39 in /  1029 hPa ENE 6.0 mph /  9.7 km/h 9.0 mph /  14.5 km/h 89 % 0.00 in /  0 mm
03:12 38.9 °F /  3.8 °C 35.9 °F /  2.2 °C 30.40 in /  1029.3 hPa ENE 7.0 mph /  11.3 km/h 12.0 mph /  19.3 km/h 89 % 0.00 in /  0 mm
03:17 38.9 °F /  3.8 °C 35.9 °F /  2.2 °C 30.40 in /  1029.3 hPa ENE 5.0 mph /  8 km/h 8.0 mph /  12.9 km/h 89 % 0.00 in /  0 mm
03:22 38.9 °F /  3.8 °C 35.6 °F /  2 °C 30.40 in /  1029.3 hPa ENE 6.0 mph /  9.7 km/h 10.0 mph /  16.1 km/h 88 % 0.00 in /  0 mm
03:27 38.8 °F /  3.8 °C 35.3 °F /  1.8 °C 30.40 in /  1029.3 hPa ENE 6.0 mph /  9.7 km/h 10.0 mph /  16.1 km/h 87 % 0.00 in /  0 mm
03:32 38.8 °F /  3.8 °C 35.3 °F /  1.8 °C 30.40 in /  1029.3 hPa ENE 6.0 mph /  9.7 km/h 12.0 mph /  19.3 km/h 87 % 0.00 in /  0 mm
03:37 38.7 °F /  3.7 °C 35.2 °F /  1.8 °C 30.40 in /  1029.3 hPa ENE 6.0 mph /  9.7 km/h 12.0 mph /  19.3 km/h 87 % 0.00 in /  0 mm
03:42 38.7 °F /  3.7 °C 34.9 °F /  1.6 °C 30.40 in /  1029.3 hPa ENE 8.0 mph /  12.9 km/h 13.0 mph /  20.9 km/h 86 % 0.00 in /  0 mm
03:47 38.6 °F /  3.7 °C 34.8 °F /  1.6 °C 30.40 in /  1029.3 hPa ENE 7.0 mph /  11.3 km/h 12.0 mph /  19.3 km/h 86 % 0.00 in /  0 mm
03:52 38.6 °F /  3.7 °C 35.0 °F /  1.7 °C 30.40 in /  1029.3 hPa ENE 8.0 mph /  12.9 km/h 12.0 mph /  19.3 km/h 87 % 0.00 in /  0 mm
03:57 38.4 °F /  3.6 °C 34.9 °F /  1.6 °C 30.40 in /  1029.3 hPa ENE 6.2 mph /  10 km/h 11.5 mph /  18.5 km/h 87 % 0.00 in /  0 mm
04:02 38.3 °F /  3.5 °C 35.1 °F /  1.7 °C 30.40 in /  1029.3 hPa ENE 8.0 mph /  12.9 km/h 13.0 mph /  20.9 km/h 88 % 0.00 in /  0 mm
04:07 38.1 °F /  3.4 °C 35.1 °F /  1.7 °C 30.40 in /  1029.3 hPa ENE 7.0 mph /  11.3 km/h 12.0 mph /  19.3 km/h 89 % 0.00 in /  0 mm
04:12 37.9 °F /  3.3 °C 34.9 °F /  1.6 °C 30.40 in /  1029.3 hPa ENE 5.0 mph /  8 km/h 10.0 mph /  16.1 km/h 89 % 0.00 in /  0 mm
04:17 37.9 °F /  3.3 °C 35.2 °F /  1.8 °C 30.40 in /  1029.3 hPa ENE 7.0 mph /  11.3 km/h 12.0 mph /  19.3 km/h 90 % 0.00 in /  0 mm
04:22 37.8 °F /  3.2 °C 35.1 °F /  1.7 °C 30.40 in /  1029.3 hPa ENE 7.0 mph /  11.3 km/h 12.0 mph /  19.3 km/h 90 % 0.00 in /  0 mm
04:27 37.7 °F /  3.2 °C 35.0 °F /  1.7 °C 30.40 in /  1029.3 hPa NE 7.4 mph /  11.9 km/h 11.5 mph /  18.5 km/h 90 % 0.00 in /  0 mm
04:32 37.7 °F /  3.2 °C 35.0 °F /  1.7 °C 30.39 in /  1029 hPa ENE 9.0 mph /  14.5 km/h 15.0 mph /  24.1 km/h 90 % 0.00 in /  0 mm
04:37 37.7 °F /  3.2 °C 34.8 °F /  1.6 °C 30.40 in /  1029.3 hPa ENE 9.0 mph /  14.5 km/h 12.0 mph /  19.3 km/h 89 % 0.00 in /  0 mm
04:42 37.7 °F /  3.2 °C 34.8 °F /  1.6 °C 30.40 in /  1029.3 hPa ENE 8.0 mph /  12.9 km/h 12.0 mph /  19.3 km/h 89 % 0.00 in /  0 mm
04:47 37.8 °F /  3.2 °C 34.8 °F /  1.6 °C 30.40 in /  1029.3 hPa ENE 8.0 mph /  12.9 km/h 13.0 mph /  20.9 km/h 89 % 0.00 in /  0 mm
04:52 37.8 °F /  3.2 °C 34.8 °F /  1.6 °C 30.40 in /  1029.3 hPa ENE 10.0 mph /  16.1 km/h 13.0 mph /  20.9 km/h 89 % 0.00 in /  0 mm
04:58 37.8 °F /  3.2 °C 34.6 °F /  1.4 °C 30.40 in /  1029.3 hPa East 9.5 mph /  15.3 km/h 12.7 mph /  20.4 km/h 88 % 0.00 in /  0 mm
05:03 37.8 °F /  3.2 °C 34.8 °F /  1.6 °C 30.40 in /  1029.3 hPa ENE 9.3 mph /  15 km/h 12.7 mph /  20.4 km/h 89 % 0.00 in /  0 mm
05:08 37.8 °F /  3.2 °C 34.8 °F /  1.6 °C 30.40 in /  1029.3 hPa ENE 6.7 mph /  10.8 km/h 11.0 mph /  17.7 km/h 89 % 0.00 in /  0 mm
05:13 37.8 °F /  3.2 °C 34.6 °F /  1.4 °C 30.40 in /  1029.3 hPa NE 7.4 mph /  11.9 km/h 10.4 mph /  16.7 km/h 88 % 0.00 in /  0 mm
05:18 37.8 °F /  3.2 °C 34.8 °F /  1.6 °C 30.40 in /  1029.3 hPa ENE 7.7 mph /  12.4 km/h 11.5 mph /  18.5 km/h 89 % 0.00 in /  0 mm
05:23 37.7 °F /  3.2 °C 34.8 °F /  1.6 °C 30.40 in /  1029.3 hPa ENE 7.4 mph /  11.9 km/h 9.2 mph /  14.8 km/h 89 % 0.00 in /  0 mm
05:28 37.7 °F /  3.2 °C 34.5 °F /  1.4 °C 30.40 in /  1029.3 hPa NE 8.4 mph /  13.5 km/h 12.7 mph /  20.4 km/h 88 % 0.00 in /  0 mm
05:33 37.6 °F /  3.1 °C 34.4 °F /  1.3 °C 30.40 in /  1029.3 hPa ENE 9.1 mph /  14.6 km/h 12.7 mph /  20.4 km/h 88 % 0.00 in /  0 mm
05:38 37.5 °F /  3.1 °C 34.3 °F /  1.3 °C 30.40 in /  1029.3 hPa NE 9.9 mph /  15.9 km/h 12.7 mph /  20.4 km/h 88 % 0.00 in /  0 mm
05:43 37.5 °F /  3.1 °C 34.3 °F /  1.3 °C 30.40 in /  1029.3 hPa East 9.0 mph /  14.5 km/h 11.5 mph /  18.5 km/h 88 % 0.00 in /  0 mm
05:48 37.5 °F /  3.1 °C 34.0 °F /  1.1 °C 30.40 in /  1029.3 hPa East 8.5 mph /  13.7 km/h 11.5 mph /  18.5 km/h 87 % 0.00 in /  0 mm
05:53 37.6 °F /  3.1 °C 34.1 °F /  1.2 °C 30.41 in /  1029.7 hPa ENE 10.1 mph /  16.3 km/h 15.0 mph /  24.1 km/h 87 % 0.00 in /  0 mm
05:58 37.6 °F /  3.1 °C 34.1 °F /  1.2 °C 30.41 in /  1029.7 hPa ENE 9.1 mph /  14.6 km/h 12.7 mph /  20.4 km/h 87 % 0.00 in /  0 mm
06:03 37.7 °F /  3.2 °C 34.2 °F /  1.2 °C 30.41 in /  1029.7 hPa East 10.0 mph /  16.1 km/h 12.7 mph /  20.4 km/h 87 % 0.00 in /  0 mm
06:08 37.7 °F /  3.2 °C 33.9 °F /  1.1 °C 30.41 in /  1029.7 hPa ENE 9.6 mph /  15.4 km/h 11.5 mph /  18.5 km/h 86 % 0.00 in /  0 mm
06:13 37.7 °F /  3.2 °C 33.9 °F /  1.1 °C 30.41 in /  1029.7 hPa ENE 8.7 mph /  14 km/h 11.5 mph /  18.5 km/h 86 % 0.00 in /  0 mm
06:18 37.7 °F /  3.2 °C 33.9 °F /  1.1 °C 30.41 in /  1029.7 hPa ENE 9.2 mph /  14.8 km/h 12.0 mph /  19.3 km/h 86 % 0.00 in /  0 mm
06:23 37.7 °F /  3.2 °C 34.2 °F /  1.2 °C 30.41 in /  1029.7 hPa ENE 9.1 mph /  14.6 km/h 10.4 mph /  16.7 km/h 87 % 0.00 in /  0 mm
06:28 37.6 °F /  3.1 °C 34.1 °F /  1.2 °C 30.41 in /  1029.7 hPa ENE 9.1 mph /  14.6 km/h 14.0 mph /  22.5 km/h 87 % 0.00 in /  0 mm
06:33 37.6 °F /  3.1 °C 34.1 °F /  1.2 °C 30.41 in /  1029.7 hPa ENE 8.5 mph /  13.7 km/h 11.5 mph /  18.5 km/h 87 % 0.00 in /  0 mm
06:38 37.5 °F /  3.1 °C 33.7 °F /  0.9 °C 30.41 in /  1029.7 hPa NE 8.9 mph /  14.3 km/h 12.7 mph /  20.4 km/h 86 % 0.00 in /  0 mm
06:43 37.5 °F /  3.1 °C 34.0 °F /  1.1 °C 30.41 in /  1029.7 hPa ENE 7.8 mph /  12.6 km/h 13.8 mph /  22.2 km/h 87 % 0.00 in /  0 mm
06:48 37.4 °F /  3 °C 33.9 °F /  1.1 °C 30.41 in /  1029.7 hPa ENE 8.6 mph /  13.8 km/h 11.5 mph /  18.5 km/h 87 % 0.00 in /  0 mm
06:53 37.3 °F /  2.9 °C 34.1 °F /  1.2 °C 30.41 in /  1029.7 hPa ENE 8.7 mph /  14 km/h 13.8 mph /  22.2 km/h 88 % 0.00 in /  0 mm
06:58 37.3 °F /  2.9 °C 34.1 °F /  1.2 °C 30.41 in /  1029.7 hPa ENE 8.0 mph /  12.9 km/h 11.5 mph /  18.5 km/h 88 % 0.00 in /  0 mm
07:03 37.3 °F /  2.9 °C 34.1 °F /  1.2 °C 30.41 in /  1029.7 hPa ENE 8.5 mph /  13.7 km/h 11.5 mph /  18.5 km/h 88 % 0.00 in /  0 mm
07:08 37.2 °F /  2.9 °C 34.0 °F /  1.1 °C 30.41 in /  1029.7 hPa ENE 8.6 mph /  13.8 km/h 13.8 mph /  22.2 km/h 88 % 0.00 in /  0 mm
07:13 37.2 °F /  2.9 °C 34.0 °F /  1.1 °C 30.41 in /  1029.7 hPa NE 10.1 mph /  16.3 km/h 15.0 mph /  24.1 km/h 88 % 0.00 in /  0 mm
07:19 37.1 °F /  2.8 °C 34.2 °F /  1.2 °C 30.41 in /  1029.7 hPa ENE 10.1 mph /  16.3 km/h 13.0 mph /  20.9 km/h 89 % 0.00 in /  0 mm
07:24 36.9 °F /  2.7 °C 34.2 °F /  1.2 °C 30.41 in /  1029.7 hPa NE 9.3 mph /  15 km/h 13.8 mph /  22.2 km/h 90 % 0.01 in /  0.25 mm
07:29 36.7 °F /  2.6 °C 34.3 °F /  1.3 °C 30.41 in /  1029.7 hPa East 9.6 mph /  15.4 km/h 12.7 mph /  20.4 km/h 91 % 0.01 in /  0.25 mm
07:34 36.5 °F /  2.5 °C 34.1 °F /  1.2 °C 30.41 in /  1029.7 hPa ENE 8.5 mph /  13.7 km/h 13.8 mph /  22.2 km/h 91 % 0.01 in /  0.25 mm
07:39 36.5 °F /  2.5 °C 34.4 °F /  1.3 °C 30.41 in /  1029.7 hPa NE 7.4 mph /  11.9 km/h 11.5 mph /  18.5 km/h 92 % 0.02 in /  0.51 mm
07:49 36.4 °F /  2.4 °C 34.3 °F /  1.3 °C 30.42 in /  1030 hPa ENE 9.0 mph /  14.5 km/h 9.2 mph /  14.8 km/h 92 % 0.02 in /  0.51 mm
07:54 36.4 °F /  2.4 °C 34.3 °F /  1.3 °C 30.42 in /  1030 hPa East 9.1 mph /  14.6 km/h 14.0 mph /  22.5 km/h 92 % 0.02 in /  0.51 mm
07:59 36.4 °F /  2.4 °C 34.3 °F /  1.3 °C 30.43 in /  1030.4 hPa ENE 7.3 mph /  11.7 km/h 11.5 mph /  18.5 km/h 92 % 0.02 in /  0.51 mm
08:04 36.4 °F /  2.4 °C 34.3 °F /  1.3 °C 30.43 in /  1030.4 hPa ENE 8.9 mph /  14.3 km/h 11.5 mph /  18.5 km/h 92 % 0.02 in /  0.51 mm
08:09 36.4 °F /  2.4 °C 34.3 °F /  1.3 °C 30.44 in /  1030.7 hPa East 7.5 mph /  12.1 km/h 10.4 mph /  16.7 km/h 92 % 0.02 in /  0.51 mm
08:14 36.4 °F /  2.4 °C 34.3 °F /  1.3 °C 30.43 in /  1030.4 hPa ENE 7.9 mph /  12.7 km/h 10.4 mph /  16.7 km/h 92 % 0.02 in /  0.51 mm
08:19 36.4 °F /  2.4 °C 34.3 °F /  1.3 °C 30.43 in /  1030.4 hPa NE 8.8 mph /  14.2 km/h 15.0 mph /  24.1 km/h 92 % 0.02 in /  0.51 mm
08:24 36.4 °F /  2.4 °C 34.3 °F /  1.3 °C 30.43 in /  1030.4 hPa ENE 8.8 mph /  14.2 km/h 10.4 mph /  16.7 km/h 92 % 0.01 in /  0.25 mm
08:29 36.4 °F /  2.4 °C 34.3 °F /  1.3 °C 30.43 in /  1030.4 hPa ENE 9.1 mph /  14.6 km/h 11.5 mph /  18.5 km/h 92 % 0.01 in /  0.25 mm
08:34 36.4 °F /  2.4 °C 34.3 °F /  1.3 °C 30.43 in /  1030.4 hPa East 8.4 mph /  13.5 km/h 10.4 mph /  16.7 km/h 92 % 0.01 in /  0.25 mm
08:39 36.4 °F /  2.4 °C 34.0 °F /  1.1 °C 30.43 in /  1030.4 hPa East 10.5 mph /  16.9 km/h 14.0 mph /  22.5 km/h 91 % 0.00 in /  0 mm
08:44 36.5 °F /  2.5 °C 34.1 °F /  1.2 °C 30.43 in /  1030.4 hPa ENE 8.4 mph /  13.5 km/h 11.5 mph /  18.5 km/h 91 % 0.00 in /  0 mm
08:50 36.6 °F /  2.6 °C 34.2 °F /  1.2 °C 30.43 in /  1030.4 hPa ENE 7.4 mph /  11.9 km/h 11.5 mph /  18.5 km/h 91 % 0.00 in /  0 mm
08:55 36.6 °F /  2.6 °C 34.2 °F /  1.2 °C 30.44 in /  1030.7 hPa East 8.3 mph /  13.4 km/h 11.5 mph /  18.5 km/h 91 % 0.00 in /  0 mm
09:00 36.7 °F /  2.6 °C 34.3 °F /  1.3 °C 30.44 in /  1030.7 hPa East 8.6 mph /  13.8 km/h 11.5 mph /  18.5 km/h 91 % 0.00 in /  0 mm
09:05 36.9 °F /  2.7 °C 34.5 °F /  1.4 °C 30.44 in /  1030.7 hPa East 7.4 mph /  11.9 km/h 11.5 mph /  18.5 km/h 91 % 0.00 in /  0 mm
09:10 37.0 °F /  2.8 °C 34.6 °F /  1.4 °C 30.44 in /  1030.7 hPa East 10.1 mph /  16.3 km/h 13.8 mph /  22.2 km/h 91 % 0.00 in /  0 mm
09:15 37.1 °F /  2.8 °C 34.7 °F /  1.5 °C 30.44 in /  1030.7 hPa East 7.9 mph /  12.7 km/h 12.7 mph /  20.4 km/h 91 % 0.00 in /  0 mm
09:20 37.1 °F /  2.8 °C 34.4 °F /  1.3 °C 30.43 in /  1030.4 hPa East 8.9 mph /  14.3 km/h 11.5 mph /  18.5 km/h 90 % 0.00 in /  0 mm
09:25 37.2 °F /  2.9 °C 34.5 °F /  1.4 °C 30.44 in /  1030.7 hPa East 9.1 mph /  14.6 km/h 12.7 mph /  20.4 km/h 90 % 0.00 in /  0 mm
09:27 37.3 °F /  2.9 °C 34.6 °F /  1.4 °C 30.44 in /  1030.7 hPa East 9.3 mph /  15 km/h 11.5 mph /  18.5 km/h 90 % 0.00 in /  0 mm
09:32 37.4 °F /  3 °C 34.7 °F /  1.5 °C 30.44 in /  1030.7 hPa East 8.6 mph /  13.8 km/h 11.5 mph /  18.5 km/h 90 % 0.00 in /  0 mm
09:37 37.5 °F /  3.1 °C 34.8 °F /  1.6 °C 30.44 in /  1030.7 hPa East 9.1 mph /  14.6 km/h 11.5 mph /  18.5 km/h 90 % 0.00 in /  0 mm
09:42 37.6 °F /  3.1 °C 34.9 °F /  1.6 °C 30.44 in /  1030.7 hPa East 9.0 mph /  14.5 km/h 12.7 mph /  20.4 km/h 90 % 0.00 in /  0 mm
09:47 37.7 °F /  3.2 °C 35.0 °F /  1.7 °C 30.45 in /  1031 hPa East 9.5 mph /  15.3 km/h 11.5 mph /  18.5 km/h 90 % 0.00 in /  0 mm
09:52 37.8 °F /  3.2 °C 34.8 °F /  1.6 °C 30.45 in /  1031 hPa ENE 8.0 mph /  12.9 km/h 11.5 mph /  18.5 km/h 89 % 0.00 in /  0 mm
09:57 37.9 °F /  3.3 °C 34.9 °F /  1.6 °C 30.45 in /  1031 hPa East 8.3 mph /  13.4 km/h 11.5 mph /  18.5 km/h 89 % 0.00 in /  0 mm
10:02 37.9 °F /  3.3 °C 34.9 °F /  1.6 °C 30.45 in /  1031 hPa ENE 7.1 mph /  11.4 km/h 9.2 mph /  14.8 km/h 89 % 0.00 in /  0 mm
10:07 38.1 °F /  3.4 °C 35.1 °F /  1.7 °C 30.45 in /  1031 hPa East 7.8 mph /  12.6 km/h 11.5 mph /  18.5 km/h 89 % 0.00 in /  0 mm
10:12 38.2 °F /  3.4 °C 35.2 °F /  1.8 °C 30.45 in /  1031 hPa East 7.0 mph /  11.3 km/h 10.4 mph /  16.7 km/h 89 % 0.00 in /  0 mm
10:17 38.3 °F /  3.5 °C 35.1 °F /  1.7 °C 30.45 in /  1031 hPa NE 9.0 mph /  14.5 km/h 12.7 mph /  20.4 km/h 88 % 0.00 in /  0 mm
10:22 38.4 °F /  3.6 °C 35.2 °F /  1.8 °C 30.45 in /  1031 hPa ENE 8.7 mph /  14 km/h 13.0 mph /  20.9 km/h 88 % 0.00 in /  0 mm
10:27 38.6 °F /  3.7 °C 35.4 °F /  1.9 °C 30.45 in /  1031 hPa ENE 8.4 mph /  13.5 km/h 11.5 mph /  18.5 km/h 88 % 0.00 in /  0 mm
10:32 38.7 °F /  3.7 °C 35.2 °F /  1.8 °C 30.45 in /  1031 hPa East 9.2 mph /  14.8 km/h 11.5 mph /  18.5 km/h 87 % 0.00 in /  0 mm
10:34 38.7 °F /  3.7 °C 35.2 °F /  1.8 °C 30.45 in /  1031 hPa ENE 10.2 mph /  16.4 km/h 12.7 mph /  20.4 km/h 87 % 0.00 in /  0 mm
10:39 38.8 °F /  3.8 °C 35.0 °F /  1.7 °C 30.45 in /  1031 hPa ENE 9.5 mph /  15.3 km/h 11.5 mph /  18.5 km/h 86 % 0.00 in /  0 mm
10:44 38.8 °F /  3.8 °C 35.0 °F /  1.7 °C 30.46 in /  1031.4 hPa ENE 8.1 mph /  13 km/h 11.5 mph /  18.5 km/h 86 % 0.00 in /  0 mm
10:49 38.8 °F /  3.8 °C 35.0 °F /  1.7 °C 30.46 in /  1031.4 hPa ENE 9.6 mph /  15.4 km/h 13.8 mph /  22.2 km/h 86 % 0.00 in /  0 mm
10:54 38.8 °F /  3.8 °C 35.0 °F /  1.7 °C 30.46 in /  1031.4 hPa ENE 8.5 mph /  13.7 km/h 13.0 mph /  20.9 km/h 86 % 0.00 in /  0 mm
10:59 38.9 °F /  3.8 °C 34.8 °F /  1.6 °C 30.46 in /  1031.4 hPa East 8.9 mph /  14.3 km/h 11.0 mph /  17.7 km/h 85 % 0.00 in /  0 mm
11:04 38.9 °F /  3.8 °C 35.1 °F /  1.7 °C 30.46 in /  1031.4 hPa ENE 8.2 mph /  13.2 km/h 11.5 mph /  18.5 km/h 86 % 0.00 in /  0 mm
11:09 39.1 °F /  3.9 °C 35.3 °F /  1.8 °C 30.46 in /  1031.4 hPa ENE 6.6 mph /  10.6 km/h 11.5 mph /  18.5 km/h 86 % 0.00 in /  0 mm
11:14 39.1 °F /  3.9 °C 35.0 °F /  1.7 °C 30.46 in /  1031.4 hPa ENE 7.2 mph /  11.6 km/h 11.5 mph /  18.5 km/h 85 % 0.00 in /  0 mm
11:19 39.1 °F /  3.9 °C 35.0 °F /  1.7 °C 30.46 in /  1031.4 hPa ENE 9.6 mph /  15.4 km/h 11.5 mph /  18.5 km/h 85 % 0.00 in /  0 mm
11:24 39.1 °F /  3.9 °C 35.0 °F /  1.7 °C 30.46 in /  1031.4 hPa ENE 9.4 mph /  15.1 km/h 15.0 mph /  24.1 km/h 85 % 0.00 in /  0 mm
11:29 39.1 °F /  3.9 °C 35.0 °F /  1.7 °C 30.45 in /  1031 hPa ENE 9.6 mph /  15.4 km/h 13.0 mph /  20.9 km/h 85 % 0.00 in /  0 mm
11:34 39.1 °F /  3.9 °C 35.0 °F /  1.7 °C 30.46 in /  1031.4 hPa East 6.2 mph /  10 km/h 10.4 mph /  16.7 km/h 85 % 0.00 in /  0 mm
11:39 39.0 °F /  3.9 °C 34.9 °F /  1.6 °C 30.46 in /  1031.4 hPa ENE 7.4 mph /  11.9 km/h 10.0 mph /  16.1 km/h 85 % 0.00 in /  0 mm
11:44 39.0 °F /  3.9 °C 34.9 °F /  1.6 °C 30.46 in /  1031.4 hPa East 8.8 mph /  14.2 km/h 11.5 mph /  18.5 km/h 85 % 0.00 in /  0 mm
11:49 39.0 °F /  3.9 °C 34.9 °F /  1.6 °C 30.46 in /  1031.4 hPa East 6.7 mph /  10.8 km/h 10.4 mph /  16.7 km/h 85 % 0.00 in /  0 mm
11:54 39.1 °F /  3.9 °C 35.3 °F /  1.8 °C 30.46 in /  1031.4 hPa East 7.3 mph /  11.7 km/h 10.4 mph /  16.7 km/h 86 % 0.00 in /  0 mm
11:59 39.3 °F /  4.1 °C 35.2 °F /  1.8 °C 30.45 in /  1031 hPa ENE 7.9 mph /  12.7 km/h 11.5 mph /  18.5 km/h 85 % 0.00 in /  0 mm
12:05 39.4 °F /  4.1 °C 35.3 °F /  1.8 °C 30.46 in /  1031.4 hPa ENE 7.6 mph /  12.2 km/h 10.4 mph /  16.7 km/h 85 % 0.00 in /  0 mm
12:10 39.5 °F /  4.2 °C 35.4 °F /  1.9 °C 30.45 in /  1031 hPa East 8.8 mph /  14.2 km/h 10.4 mph /  16.7 km/h 85 % 0.00 in /  0 mm
12:15 39.6 °F /  4.2 °C 35.5 °F /  1.9 °C 30.46 in /  1031.4 hPa NE 6.7 mph /  10.8 km/h 10.4 mph /  16.7 km/h 85 % 0.00 in /  0 mm
12:20 39.7 °F /  4.3 °C 35.6 °F /  2 °C 30.46 in /  1031.4 hPa ENE 7.4 mph /  11.9 km/h 9.2 mph /  14.8 km/h 85 % 0.00 in /  0 mm
12:25 39.8 °F /  4.3 °C 35.7 °F /  2.1 °C 30.46 in /  1031.4 hPa East 8.0 mph /  12.9 km/h 12.7 mph /  20.4 km/h 85 % 0.00 in /  0 mm
12:30 39.8 °F /  4.3 °C 35.4 °F /  1.9 °C 30.45 in /  1031 hPa East 7.0 mph /  11.3 km/h 10.4 mph /  16.7 km/h 84 % 0.00 in /  0 mm
12:35 39.8 °F /  4.3 °C 35.4 °F /  1.9 °C 30.45 in /  1031 hPa East 8.3 mph /  13.4 km/h 12.7 mph /  20.4 km/h 84 % 0.00 in /  0 mm
12:44 39.8 °F /  4.3 °C 35.4 °F /  1.9 °C 30.45 in /  1031 hPa ENE 7.8 mph /  12.6 km/h 11.5 mph /  18.5 km/h 84 % 0.00 in /  0 mm
12:49 39.9 °F /  4.4 °C 35.8 °F /  2.1 °C 30.45 in /  1031 hPa East 9.3 mph /  15 km/h 11.5 mph /  18.5 km/h 85 % 0.00 in /  0 mm
12:54 39.8 °F /  4.3 °C 35.4 °F /  1.9 °C 30.45 in /  1031 hPa ENE 8.5 mph /  13.7 km/h 11.5 mph /  18.5 km/h 84 % 0.00 in /  0 mm
13:00 39.9 °F /  4.4 °C 35.8 °F /  2.1 °C 30.45 in /  1031 hPa East 8.8 mph /  14.2 km/h 11.5 mph /  18.5 km/h 85 % 0.00 in /  0 mm
13:05 39.9 °F /  4.4 °C 35.5 °F /  1.9 °C 30.44 in /  1030.7 hPa ENE 9.9 mph /  15.9 km/h 13.8 mph /  22.2 km/h 84 % 0.00 in /  0 mm
13:10 39.7 °F /  4.3 °C 35.6 °F /  2 °C 30.44 in /  1030.7 hPa ENE 7.7 mph /  12.4 km/h 11.5 mph /  18.5 km/h 85 % 0.00 in /  0 mm
13:15 39.7 °F /  4.3 °C 35.3 °F /  1.8 °C 30.44 in /  1030.7 hPa ENE 7.2 mph /  11.6 km/h 11.5 mph /  18.5 km/h 84 % 0.00 in /  0 mm
13:20 39.6 °F /  4.2 °C 35.2 °F /  1.8 °C 30.44 in /  1030.7 hPa ENE 8.1 mph /  13 km/h 11.5 mph /  18.5 km/h 84 % 0.00 in /  0 mm
13:25 39.6 °F /  4.2 °C 35.5 °F /  1.9 °C 30.43 in /  1030.4 hPa NE 10.7 mph /  17.2 km/h 17.3 mph /  27.8 km/h 85 % 0.00 in /  0 mm
13:30 39.5 °F /  4.2 °C 35.4 °F /  1.9 °C 30.43 in /  1030.4 hPa ENE 8.5 mph /  13.7 km/h 10.4 mph /  16.7 km/h 85 % 0.00 in /  0 mm
13:35 39.4 °F /  4.1 °C 35.3 °F /  1.8 °C 30.43 in /  1030.4 hPa East 8.7 mph /  14 km/h 11.5 mph /  18.5 km/h 85 % 0.00 in /  0 mm
13:40 39.4 °F /  4.1 °C 35.3 °F /  1.8 °C 30.43 in /  1030.4 hPa East 7.5 mph /  12.1 km/h 11.5 mph /  18.5 km/h 85 % 0.00 in /  0 mm
13:45 39.4 °F /  4.1 °C 35.6 °F /  2 °C 30.43 in /  1030.4 hPa ENE 7.7 mph /  12.4 km/h 11.0 mph /  17.7 km/h 86 % 0.00 in /  0 mm
13:50 39.4 °F /  4.1 °C 35.6 °F /  2 °C 30.43 in /  1030.4 hPa East 7.8 mph /  12.6 km/h 10.0 mph /  16.1 km/h 86 % 0.00 in /  0 mm
13:55 39.5 °F /  4.2 °C 36.0 °F /  2.2 °C 30.42 in /  1030 hPa ENE 7.1 mph /  11.4 km/h 10.0 mph /  16.1 km/h 87 % 0.00 in /  0 mm
14:00 39.4 °F /  4.1 °C 35.6 °F /  2 °C 30.42 in /  1030 hPa ENE 7.9 mph /  12.7 km/h 11.5 mph /  18.5 km/h 86 % 0.00 in /  0 mm
14:05 39.4 °F /  4.1 °C 35.9 °F /  2.2 °C 30.42 in /  1030 hPa ENE 7.3 mph /  11.7 km/h 10.0 mph /  16.1 km/h 87 % 0.00 in /  0 mm
14:10 39.3 °F /  4.1 °C 35.8 °F /  2.1 °C 30.42 in /  1030 hPa NE 8.2 mph /  13.2 km/h 11.5 mph /  18.5 km/h 87 % 0.00 in /  0 mm
14:15 39.4 °F /  4.1 °C 36.1 °F /  2.3 °C 30.42 in /  1030 hPa ENE 5.9 mph /  9.5 km/h 9.0 mph /  14.5 km/h 88 % 0.00 in /  0 mm
14:20 39.4 °F /  4.1 °C 36.1 °F /  2.3 °C 30.42 in /  1030 hPa ENE 6.4 mph /  10.3 km/h 9.2 mph /  14.8 km/h 88 % 0.00 in /  0 mm
14:25 39.5 °F /  4.2 °C 36.5 °F /  2.5 °C 30.42 in /  1030 hPa ENE 8.8 mph /  14.2 km/h 11.0 mph /  17.7 km/h 89 % 0.00 in /  0 mm
14:30 39.4 °F /  4.1 °C 36.1 °F /  2.3 °C 30.41 in /  1029.7 hPa East 8.9 mph /  14.3 km/h 11.5 mph /  18.5 km/h 88 % 0.00 in /  0 mm
14:35 39.5 °F /  4.2 °C 36.2 °F /  2.3 °C 30.41 in /  1029.7 hPa East 8.3 mph /  13.4 km/h 11.5 mph /  18.5 km/h 88 % 0.00 in /  0 mm
14:40 39.4 °F /  4.1 °C 36.1 °F /  2.3 °C 30.41 in /  1029.7 hPa ENE 6.6 mph /  10.6 km/h 10.4 mph /  16.7 km/h 88 % 0.00 in /  0 mm
14:45 39.5 °F /  4.2 °C 36.2 °F /  2.3 °C 30.41 in /  1029.7 hPa ENE 8.0 mph /  12.9 km/h 11.5 mph /  18.5 km/h 88 % 0.00 in /  0 mm
14:50 39.4 °F /  4.1 °C 36.1 °F /  2.3 °C 30.41 in /  1029.7 hPa ENE 7.0 mph /  11.3 km/h 9.2 mph /  14.8 km/h 88 % 0.00 in /  0 mm
14:55 39.4 °F /  4.1 °C 36.4 °F /  2.4 °C 30.41 in /  1029.7 hPa ENE 7.4 mph /  11.9 km/h 10.4 mph /  16.7 km/h 89 % 0.00 in /  0 mm
15:00 39.4 °F /  4.1 °C 36.4 °F /  2.4 °C 30.41 in /  1029.7 hPa ENE 6.0 mph /  9.7 km/h 9.2 mph /  14.8 km/h 89 % 0.00 in /  0 mm
15:06 39.4 °F /  4.1 °C 36.4 °F /  2.4 °C 30.41 in /  1029.7 hPa ENE 7.0 mph /  11.3 km/h 9.2 mph /  14.8 km/h 89 % 0.00 in /  0 mm
15:11 39.4 °F /  4.1 °C 36.4 °F /  2.4 °C 30.40 in /  1029.3 hPa ENE 6.4 mph /  10.3 km/h 10.4 mph /  16.7 km/h 89 % 0.00 in /  0 mm
15:16 39.4 °F /  4.1 °C 36.7 °F /  2.6 °C 30.40 in /  1029.3 hPa ENE 6.9 mph /  11.1 km/h 10.4 mph /  16.7 km/h 90 % 0.00 in /  0 mm
15:21 39.4 °F /  4.1 °C 36.7 °F /  2.6 °C 30.39 in /  1029 hPa ENE 6.4 mph /  10.3 km/h 11.0 mph /  17.7 km/h 90 % 0.00 in /  0 mm
15:26 39.4 °F /  4.1 °C 36.4 °F /  2.4 °C 30.39 in /  1029 hPa East 7.9 mph /  12.7 km/h 11.5 mph /  18.5 km/h 89 % 0.00 in /  0 mm
15:31 39.5 °F /  4.2 °C 36.8 °F /  2.7 °C 30.39 in /  1029 hPa ENE 8.4 mph /  13.5 km/h 11.5 mph /  18.5 km/h 90 % 0.00 in /  0 mm
15:36 39.6 °F /  4.2 °C 36.6 °F /  2.6 °C 30.39 in /  1029 hPa ENE 6.5 mph /  10.5 km/h 12.7 mph /  20.4 km/h 89 % 0.00 in /  0 mm
15:41 39.8 °F /  4.3 °C 37.1 °F /  2.8 °C 30.39 in /  1029 hPa East 6.9 mph /  11.1 km/h 9.0 mph /  14.5 km/h 90 % 0.00 in /  0 mm
15:46 40.0 °F /  4.4 °C 37.3 °F /  2.9 °C 30.39 in /  1029 hPa ENE 7.5 mph /  12.1 km/h 11.5 mph /  18.5 km/h 90 % 0.00 in /  0 mm
15:51 40.1 °F /  4.5 °C 37.1 °F /  2.8 °C 30.38 in /  1028.7 hPa ENE 7.3 mph /  11.7 km/h 11.5 mph /  18.5 km/h 89 % 0.00 in /  0 mm
15:56 40.2 °F /  4.6 °C 37.2 °F /  2.9 °C 30.38 in /  1028.7 hPa ENE 8.5 mph /  13.7 km/h 11.5 mph /  18.5 km/h 89 % 0.00 in /  0 mm
16:01 40.3 °F /  4.6 °C 37.3 °F /  2.9 °C 30.37 in /  1028.3 hPa ENE 7.5 mph /  12.1 km/h 9.2 mph /  14.8 km/h 89 % 0.00 in /  0 mm
16:06 40.4 °F /  4.7 °C 37.4 °F /  3 °C 30.37 in /  1028.3 hPa ENE 8.7 mph /  14 km/h 12.7 mph /  20.4 km/h 89 % 0.00 in /  0 mm
16:11 40.4 °F /  4.7 °C 37.1 °F /  2.8 °C 30.37 in /  1028.3 hPa ENE 7.9 mph /  12.7 km/h 9.2 mph /  14.8 km/h 88 % 0.00 in /  0 mm
16:16 40.4 °F /  4.7 °C 37.4 °F /  3 °C 30.38 in /  1028.7 hPa East 8.3 mph /  13.4 km/h 10.4 mph /  16.7 km/h 89 % 0.00 in /  0 mm
16:21 40.4 °F /  4.7 °C 37.1 °F /  2.8 °C 30.38 in /  1028.7 hPa ENE 7.1 mph /  11.4 km/h 11.5 mph /  18.5 km/h 88 % 0.00 in /  0 mm
16:26 40.3 °F /  4.6 °C 37.3 °F /  2.9 °C 30.38 in /  1028.7 hPa ENE 7.3 mph /  11.7 km/h 9.2 mph /  14.8 km/h 89 % 0.00 in /  0 mm
16:31 40.3 °F /  4.6 °C 37.3 °F /  2.9 °C 30.38 in /  1028.7 hPa East 8.3 mph /  13.4 km/h 10.4 mph /  16.7 km/h 89 % 0.00 in /  0 mm
16:36 40.2 °F /  4.6 °C 37.2 °F /  2.9 °C 30.37 in /  1028.3 hPa East 8.2 mph /  13.2 km/h 11.5 mph /  18.5 km/h 89 % 0.00 in /  0 mm
16:41 40.2 °F /  4.6 °C 37.5 °F /  3.1 °C 30.38 in /  1028.7 hPa ENE 6.2 mph /  10 km/h 11.5 mph /  18.5 km/h 90 % 0.00 in /  0 mm
16:46 40.1 °F /  4.5 °C 37.4 °F /  3 °C 30.38 in /  1028.7 hPa ENE 6.4 mph /  10.3 km/h 8.1 mph /  13 km/h 90 % 0.00 in /  0 mm
16:52 40.0 °F /  4.4 °C 37.3 °F /  2.9 °C 30.37 in /  1028.3 hPa East 6.4 mph /  10.3 km/h 11.5 mph /  18.5 km/h 90 % 0.00 in /  0 mm
16:57 40.0 °F /  4.4 °C 37.3 °F /  2.9 °C 30.37 in /  1028.3 hPa East 8.3 mph /  13.4 km/h 11.5 mph /  18.5 km/h 90 % 0.00 in /  0 mm
17:02 39.9 °F /  4.4 °C 37.2 °F /  2.9 °C 30.37 in /  1028.3 hPa East 5.6 mph /  9 km/h 8.1 mph /  13 km/h 90 % 0.00 in /  0 mm
17:07 39.9 °F /  4.4 °C 37.5 °F /  3.1 °C 30.38 in /  1028.7 hPa East 7.0 mph /  11.3 km/h 9.0 mph /  14.5 km/h 91 % 0.00 in /  0 mm
17:12 39.9 °F /  4.4 °C 37.5 °F /  3.1 °C 30.38 in /  1028.7 hPa ENE 5.2 mph /  8.4 km/h 9.2 mph /  14.8 km/h 91 % 0.00 in /  0 mm
17:17 39.8 °F /  4.3 °C 37.4 °F /  3 °C 30.38 in /  1028.7 hPa ENE 6.8 mph /  10.9 km/h 10.4 mph /  16.7 km/h 91 % 0.00 in /  0 mm
17:22 39.8 °F /  4.3 °C 37.4 °F /  3 °C 30.38 in /  1028.7 hPa ENE 8.5 mph /  13.7 km/h 10.4 mph /  16.7 km/h 91 % 0.00 in /  0 mm
17:25 39.8 °F /  4.3 °C 37.4 °F /  3 °C 30.38 in /  1028.7 hPa ENE 5.3 mph /  8.5 km/h 8.1 mph /  13 km/h 91 % 0.00 in /  0 mm
17:30 39.7 °F /  4.3 °C 37.3 °F /  2.9 °C 30.37 in /  1028.3 hPa ENE 6.6 mph /  10.6 km/h 10.4 mph /  16.7 km/h 91 % 0.00 in /  0 mm
17:35 39.7 °F /  4.3 °C 37.3 °F /  2.9 °C 30.37 in /  1028.3 hPa ENE 6.0 mph /  9.7 km/h 10.4 mph /  16.7 km/h 91 % 0.00 in /  0 mm
17:40 39.6 °F /  4.2 °C 37.2 °F /  2.9 °C 30.37 in /  1028.3 hPa ENE 7.3 mph /  11.7 km/h 10.4 mph /  16.7 km/h 91 % 0.00 in /  0 mm
17:45 39.6 °F /  4.2 °C 37.5 °F /  3.1 °C 30.37 in /  1028.3 hPa ENE 6.5 mph /  10.5 km/h 8.1 mph /  13 km/h 92 % 0.00 in /  0 mm
17:50 39.6 °F /  4.2 °C 37.5 °F /  3.1 °C 30.37 in /  1028.3 hPa ENE 3.6 mph /  5.8 km/h 8.1 mph /  13 km/h 92 % 0.00 in /  0 mm
17:55 39.6 °F /  4.2 °C 37.5 °F /  3.1 °C 30.37 in /  1028.3 hPa ENE 4.7 mph /  7.6 km/h 9.2 mph /  14.8 km/h 92 % 0.00 in /  0 mm
18:00 39.5 °F /  4.2 °C 37.4 °F /  3 °C 30.37 in /  1028.3 hPa ENE 4.5 mph /  7.2 km/h 8.1 mph /  13 km/h 92 % 0.00 in /  0 mm
18:05 39.5 °F /  4.2 °C 37.4 °F /  3 °C 30.37 in /  1028.3 hPa NE 6.1 mph /  9.8 km/h 9.0 mph /  14.5 km/h 92 % 0.00 in /  0 mm
18:10 39.5 °F /  4.2 °C 37.4 °F /  3 °C 30.37 in /  1028.3 hPa ENE 5.7 mph /  9.2 km/h 8.1 mph /  13 km/h 92 % 0.00 in /  0 mm
18:15 39.5 °F /  4.2 °C 37.4 °F /  3 °C 30.36 in /  1028 hPa ENE 6.3 mph /  10.1 km/h 9.2 mph /  14.8 km/h 92 % 0.00 in /  0 mm
18:20 39.4 °F /  4.1 °C 37.3 °F /  2.9 °C 30.36 in /  1028 hPa ENE 6.1 mph /  9.8 km/h 9.2 mph /  14.8 km/h 92 % 0.00 in /  0 mm
18:22 39.4 °F /  4.1 °C 37.3 °F /  2.9 °C 30.36 in /  1028 hPa East 4.8 mph /  7.7 km/h 6.9 mph /  11.1 km/h 92 % 0.00 in /  0 mm
18:27 39.4 °F /  4.1 °C 37.3 °F /  2.9 °C 30.36 in /  1028 hPa ENE 6.0 mph /  9.7 km/h 9.2 mph /  14.8 km/h 92 % 0.00 in /  0 mm
18:32 39.4 °F /  4.1 °C 37.3 °F /  2.9 °C 30.36 in /  1028 hPa ENE 6.0 mph /  9.7 km/h 10.0 mph /  16.1 km/h 92 % 0.00 in /  0 mm
18:37 39.4 °F /  4.1 °C 37.3 °F /  2.9 °C 30.36 in /  1028 hPa ENE 7.0 mph /  11.3 km/h 8.0 mph /  12.9 km/h 92 % 0.00 in /  0 mm
18:42 39.4 °F /  4.1 °C 37.3 °F /  2.9 °C 30.36 in /  1028 hPa East 6.0 mph /  9.7 km/h 9.0 mph /  14.5 km/h 92 % 0.00 in /  0 mm
18:47 39.4 °F /  4.1 °C 37.2 °F /  2.9 °C 30.36 in /  1028 hPa ENE 6.0 mph /  9.7 km/h 8.0 mph /  12.9 km/h 92 % 0.00 in /  0 mm
18:52 39.3 °F /  4.1 °C 37.2 °F /  2.9 °C 30.36 in /  1028 hPa ENE 7.0 mph /  11.3 km/h 9.0 mph /  14.5 km/h 92 % 0.00 in /  0 mm
18:58 39.3 °F /  4.1 °C 37.2 °F /  2.9 °C 30.36 in /  1028 hPa East 6.0 mph /  9.7 km/h 8.1 mph /  13 km/h 92 % 0.00 in /  0 mm
19:03 39.3 °F /  4.1 °C 37.2 °F /  2.9 °C 30.36 in /  1028 hPa East 6.2 mph /  10 km/h 8.1 mph /  13 km/h 92 % 0.00 in /  0 mm
19:08 39.3 °F /  4.1 °C 37.2 °F /  2.9 °C 30.36 in /  1028 hPa East 5.4 mph /  8.7 km/h 7.0 mph /  11.3 km/h 92 % 0.00 in /  0 mm
19:13 39.4 °F /  4.1 °C 37.3 °F /  2.9 °C 30.35 in /  1027.7 hPa East 4.6 mph /  7.4 km/h 7.0 mph /  11.3 km/h 92 % 0.00 in /  0 mm
19:18 39.3 °F /  4.1 °C 37.2 °F /  2.9 °C 30.35 in /  1027.7 hPa East 5.6 mph /  9 km/h 8.1 mph /  13 km/h 92 % 0.00 in /  0 mm
19:23 39.3 °F /  4.1 °C 37.2 °F /  2.9 °C 30.35 in /  1027.7 hPa East 3.8 mph /  6.1 km/h 5.0 mph /  8 km/h 92 % 0.00 in /  0 mm
19:24 39.4 °F /  4.1 °C 37.3 °F /  2.9 °C 30.35 in /  1027.7 hPa East 3.8 mph /  6.1 km/h 6.0 mph /  9.7 km/h 92 % 0.00 in /  0 mm
19:30 39.4 °F /  4.1 °C 37.3 °F /  2.9 °C 30.35 in /  1027.7 hPa East 4.0 mph /  6.4 km/h 6.9 mph /  11.1 km/h 92 % 0.00 in /  0 mm
19:35 39.6 °F /  4.2 °C 37.2 °F /  2.9 °C 30.35 in /  1027.7 hPa East 4.4 mph /  7.1 km/h 8.1 mph /  13 km/h 91 % 0.00 in /  0 mm
19:40 39.7 °F /  4.3 °C 37.0 °F /  2.8 °C 30.35 in /  1027.7 hPa East 3.8 mph /  6.1 km/h 5.8 mph /  9.3 km/h 90 % 0.00 in /  0 mm
19:45 39.8 °F /  4.3 °C 37.1 °F /  2.8 °C 30.35 in /  1027.7 hPa East 5.7 mph /  9.2 km/h 9.2 mph /  14.8 km/h 90 % 0.00 in /  0 mm
19:50 39.9 °F /  4.4 °C 37.2 °F /  2.9 °C 30.34 in /  1027.3 hPa East 4.1 mph /  6.6 km/h 7.0 mph /  11.3 km/h 90 % 0.00 in /  0 mm
19:55 39.9 °F /  4.4 °C 37.2 °F /  2.9 °C 30.34 in /  1027.3 hPa ESE 5.5 mph /  8.9 km/h 8.1 mph /  13 km/h 90 % 0.00 in /  0 mm
20:00 39.9 °F /  4.4 °C 37.2 °F /  2.9 °C 30.35 in /  1027.7 hPa ESE 3.3 mph /  5.3 km/h 6.9 mph /  11.1 km/h 90 % 0.00 in /  0 mm
20:05 39.9 °F /  4.4 °C 37.2 °F /  2.9 °C 30.35 in /  1027.7 hPa East 1.6 mph /  2.6 km/h 3.5 mph /  5.6 km/h 90 % 0.00 in /  0 mm
20:10 39.9 °F /  4.4 °C 37.2 °F /  2.9 °C 30.35 in /  1027.7 hPa East 1.1 mph /  1.8 km/h 3.5 mph /  5.6 km/h 90 % 0.00 in /  0 mm
20:15 39.9 °F /  4.4 °C 37.2 °F /  2.9 °C 30.35 in /  1027.7 hPa East 2.4 mph /  3.9 km/h 4.6 mph /  7.4 km/h 90 % 0.00 in /  0 mm
20:20 39.8 °F /  4.3 °C 37.1 °F /  2.8 °C 30.35 in /  1027.7 hPa East 4.3 mph /  6.9 km/h 5.0 mph /  8 km/h 90 % 0.00 in /  0 mm
20:25 39.8 °F /  4.3 °C 37.1 °F /  2.8 °C 30.34 in /  1027.3 hPa East 5.3 mph /  8.5 km/h 5.8 mph /  9.3 km/h 90 % 0.00 in /  0 mm
20:30 39.7 °F /  4.3 °C 37.0 °F /  2.8 °C 30.34 in /  1027.3 hPa East 4.7 mph /  7.6 km/h 9.2 mph /  14.8 km/h 90 % 0.00 in /  0 mm
20:35 39.7 °F /  4.3 °C 37.0 °F /  2.8 °C 30.34 in /  1027.3 hPa East 5.2 mph /  8.4 km/h 8.1 mph /  13 km/h 90 % 0.00 in /  0 mm
20:40 39.7 °F /  4.3 °C 37.0 °F /  2.8 °C 30.34 in /  1027.3 hPa East 5.3 mph /  8.5 km/h 6.9 mph /  11.1 km/h 90 % 0.00 in /  0 mm
20:45 39.6 °F /  4.2 °C 37.2 °F /  2.9 °C 30.35 in /  1027.7 hPa East 2.7 mph /  4.3 km/h 5.8 mph /  9.3 km/h 91 % 0.00 in /  0 mm
20:50 39.6 °F /  4.2 °C 37.2 °F /  2.9 °C 30.34 in /  1027.3 hPa East 3.7 mph /  6 km/h 5.8 mph /  9.3 km/h 91 % 0.00 in /  0 mm
20:55 39.5 °F /  4.2 °C 37.1 °F /  2.8 °C 30.35 in /  1027.7 hPa East 3.0 mph /  4.8 km/h 5.0 mph /  8 km/h 91 % 0.00 in /  0 mm
21:00 39.5 °F /  4.2 °C 37.4 °F /  3 °C 30.35 in /  1027.7 hPa East 4.1 mph /  6.6 km/h 5.0 mph /  8 km/h 92 % 0.00 in /  0 mm
21:05 39.4 °F /  4.1 °C 37.3 °F /  2.9 °C 30.35 in /  1027.7 hPa East 2.2 mph /  3.5 km/h 3.5 mph /  5.6 km/h 92 % 0.00 in /  0 mm
21:10 39.4 °F /  4.1 °C 37.3 °F /  2.9 °C 30.35 in /  1027.7 hPa ENE 2.5 mph /  4 km/h 3.5 mph /  5.6 km/h 92 % 0.00 in /  0 mm
21:15 39.3 °F /  4.1 °C 37.2 °F /  2.9 °C 30.35 in /  1027.7 hPa East 3.0 mph /  4.8 km/h 5.0 mph /  8 km/h 92 % 0.00 in /  0 mm
21:20 39.3 °F /  4.1 °C 37.4 °F /  3 °C 30.35 in /  1027.7 hPa ENE 2.2 mph /  3.5 km/h 4.6 mph /  7.4 km/h 93 % 0.00 in /  0 mm
21:25 39.2 °F /  4 °C 37.3 °F /  2.9 °C 30.35 in /  1027.7 hPa ENE 3.4 mph /  5.5 km/h 5.0 mph /  8 km/h 93 % 0.00 in /  0 mm
21:30 39.2 °F /  4 °C 37.3 °F /  2.9 °C 30.35 in /  1027.7 hPa NE 3.8 mph /  6.1 km/h 7.0 mph /  11.3 km/h 93 % 0.00 in /  0 mm
21:35 39.0 °F /  3.9 °C 37.1 °F /  2.8 °C 30.35 in /  1027.7 hPa ENE 4.1 mph /  6.6 km/h 8.0 mph /  12.9 km/h 93 % 0.00 in /  0 mm
21:40 38.8 °F /  3.8 °C 36.9 °F /  2.7 °C 30.34 in /  1027.3 hPa ENE 4.4 mph /  7.1 km/h 7.0 mph /  11.3 km/h 93 % 0.00 in /  0 mm
21:41 38.8 °F /  3.8 °C 36.9 °F /  2.7 °C 30.34 in /  1027.3 hPa East 4.4 mph /  7.1 km/h 6.9 mph /  11.1 km/h 93 % 0.00 in /  0 mm
21:46 38.7 °F /  3.7 °C 37.1 °F /  2.8 °C 30.34 in /  1027.3 hPa ENE 4.4 mph /  7.1 km/h 5.8 mph /  9.3 km/h 94 % 0.00 in /  0 mm
21:51 38.6 °F /  3.7 °C 37.0 °F /  2.8 °C 30.34 in /  1027.3 hPa ENE 3.4 mph /  5.5 km/h 6.9 mph /  11.1 km/h 94 % 0.00 in /  0 mm
21:56 38.6 °F /  3.7 °C 37.0 °F /  2.8 °C 30.34 in /  1027.3 hPa East 3.7 mph /  6 km/h 5.8 mph /  9.3 km/h 94 % 0.00 in /  0 mm
22:01 38.6 °F /  3.7 °C 37.3 °F /  2.9 °C 30.33 in /  1027 hPa East 3.9 mph /  6.3 km/h 5.8 mph /  9.3 km/h 95 % 0.00 in /  0 mm
22:06 38.6 °F /  3.7 °C 37.3 °F /  2.9 °C 30.33 in /  1027 hPa East 3.6 mph /  5.8 km/h 6.0 mph /  9.7 km/h 95 % 0.00 in /  0 mm
22:11 38.6 °F /  3.7 °C 37.3 °F /  2.9 °C 30.33 in /  1027 hPa ENE 4.7 mph /  7.6 km/h 6.9 mph /  11.1 km/h 95 % 0.00 in /  0 mm
22:16 38.5 °F /  3.6 °C 37.2 °F /  2.9 °C 30.33 in /  1027 hPa ENE 5.3 mph /  8.5 km/h 6.9 mph /  11.1 km/h 95 % 0.00 in /  0 mm
22:21 38.4 °F /  3.6 °C 37.1 °F /  2.8 °C 30.33 in /  1027 hPa East 5.6 mph /  9 km/h 7.0 mph /  11.3 km/h 95 % 0.00 in /  0 mm
22:26 38.4 °F /  3.6 °C 37.1 °F /  2.8 °C 30.33 in /  1027 hPa NE 4.3 mph /  6.9 km/h 6.9 mph /  11.1 km/h 95 % 0.00 in /  0 mm
22:31 38.3 °F /  3.5 °C 37.0 °F /  2.8 °C 30.33 in /  1027 hPa East 6.4 mph /  10.3 km/h 7.0 mph /  11.3 km/h 95 % 0.00 in /  0 mm
22:36 38.3 °F /  3.5 °C 37.0 °F /  2.8 °C 30.32 in /  1026.6 hPa ENE 5.6 mph /  9 km/h 9.2 mph /  14.8 km/h 95 % 0.00 in /  0 mm
22:41 38.3 °F /  3.5 °C 37.3 °F /  2.9 °C 30.32 in /  1026.6 hPa ENE 7.7 mph /  12.4 km/h 9.2 mph /  14.8 km/h 96 % 0.00 in /  0 mm
22:46 38.2 °F /  3.4 °C 37.2 °F /  2.9 °C 30.32 in /  1026.6 hPa East 7.1 mph /  11.4 km/h 9.2 mph /  14.8 km/h 96 % 0.00 in /  0 mm
22:51 38.2 °F /  3.4 °C 36.9 °F /  2.7 °C 30.31 in /  1026.3 hPa East 6.6 mph /  10.6 km/h 8.1 mph /  13 km/h 95 % 0.00 in /  0 mm
22:56 38.2 °F /  3.4 °C 37.2 °F /  2.9 °C 30.31 in /  1026.3 hPa ENE 7.3 mph /  11.7 km/h 10.4 mph /  16.7 km/h 96 % 0.00 in /  0 mm
23:01 38.2 °F /  3.4 °C 37.2 °F /  2.9 °C 30.31 in /  1026.3 hPa ENE 5.9 mph /  9.5 km/h 9.2 mph /  14.8 km/h 96 % 0.00 in /  0 mm
23:06 38.1 °F /  3.4 °C 37.1 °F /  2.8 °C 30.31 in /  1026.3 hPa ENE 8.1 mph /  13 km/h 11.5 mph /  18.5 km/h 96 % 0.00 in /  0 mm
23:11 38.0 °F /  3.3 °C 37.0 °F /  2.8 °C 30.31 in /  1026.3 hPa ENE 6.0 mph /  9.7 km/h 7.0 mph /  11.3 km/h 96 % 0.00 in /  0 mm
23:16 38.0 °F /  3.3 °C 37.0 °F /  2.8 °C 30.31 in /  1026.3 hPa ENE 6.7 mph /  10.8 km/h 8.1 mph /  13 km/h 96 % 0.00 in /  0 mm
23:21 38.0 °F /  3.3 °C 37.0 °F /  2.8 °C 30.31 in /  1026.3 hPa East 5.8 mph /  9.3 km/h 8.1 mph /  13 km/h 96 % 0.00 in /  0 mm
23:26 38.0 °F /  3.3 °C 37.0 °F /  2.8 °C 30.31 in /  1026.3 hPa ENE 7.1 mph /  11.4 km/h 10.4 mph /  16.7 km/h 96 % 0.00 in /  0 mm
23:31 38.0 °F /  3.3 °C 37.0 °F /  2.8 °C 30.31 in /  1026.3 hPa East 6.5 mph /  10.5 km/h 10.4 mph /  16.7 km/h 96 % 0.00 in /  0 mm
23:37 38.0 °F /  3.3 °C 37.0 °F /  2.8 °C 30.31 in /  1026.3 hPa East 5.3 mph /  8.5 km/h 8.1 mph /  13 km/h 96 % 0.00 in /  0 mm
23:42 38.0 °F /  3.3 °C 37.0 °F /  2.8 °C 30.31 in /  1026.3 hPa ENE 5.2 mph /  8.4 km/h 8.1 mph /  13 km/h 96 % 0.00 in /  0 mm
23:47 38.0 °F /  3.3 °C 37.0 °F /  2.8 °C 30.30 in /  1026 hPa ENE 6.7 mph /  10.8 km/h 10.4 mph /  16.7 km/h 96 % 0.00 in /  0 mm
23:52 38.0 °F /  3.3 °C 37.0 °F /  2.8 °C 30.30 in /  1026 hPa ENE 7.6 mph /  12.2 km/h 11.0 mph /  17.7 km/h 96 % 0.00 in /  0 mm
23:57 37.9 °F /  3.3 °C 36.9 °F /  2.7 °C 30.30 in /  1026 hPa East 6.2 mph /  10 km/h 8.1 mph /  13 km/h 96 % 0.00 in /  0 mm
Crab Meadow Weather
Compliments of Weather Underground - 3 mb

Script developed by  Jim McMurry - jmcmurry@mwt.net Adapted for the template by  Wim van der Kuil - Leuven-Template.eu

Extremes: Currently the driest state is Nevada with an annual rainfall of only nine inches.